Time;durP1;ratioP1;P1;durP2;ratioP2;P2;SDS_P1;SDS_P2;PMS_P1;PMS_P2;Temp;Humidity;BMP_temperature;BMP_pressure;BME280_temperature;BME280_humidity;BME280_pressure;Samples;Min_cycle;Max_cycle;Signal;HPM_P1;HPM_P2
2023/10/15 00:00:31;;;;;;;15.57;5.45;;;21.30;96.70;;;;;;4983710;28;20037;-77
2023/10/15 00:02:59;;;;;;;14.23;4.85;;;21.40;96.70;;;;;;4977383;28;20050;-77
2023/10/15 00:05:30;;;;;;;9.55;4.60;;;21.40;96.70;;;;;;4993179;28;20046;-77
2023/10/15 00:08:00;;;;;;;13.02;5.50;;;21.40;96.70;;;;;;4987031;28;20052;-77
2023/10/15 00:10:32;;;;;;;17.20;5.38;;;21.50;96.70;;;;;;4975157;28;20046;-77
2023/10/15 00:13:00;;;;;;;12.90;5.30;;;21.50;96.70;;;;;;4990501;28;20057;-77
2023/10/15 00:15:29;;;;;;;11.48;4.32;;;21.60;96.70;;;;;;4971934;28;20065;-77
2023/10/15 00:17:59;;;;;;;13.80;4.90;;;21.60;96.70;;;;;;4992450;28;20137;-78
2023/10/15 00:20:31;;;;;;;17.80;5.00;;;21.60;96.70;;;;;;4978433;28;20135;-77
2023/10/15 00:23:04;;;;;;;10.82;4.90;;;21.60;96.70;;;;;;4990461;28;20041;-78
2023/10/15 00:25:41;;;;;;;16.77;5.30;;;21.60;96.70;;;;;;4968693;28;20520;-79
2023/10/15 00:28:15;;;;;;;15.80;5.13;;;21.60;96.70;;;;;;4987539;28;20060;-77
2023/10/15 00:30:44;;;;;;;12.60;5.22;;;21.50;96.70;;;;;;4972769;28;21486;-77
2023/10/15 00:33:12;;;;;;;8.90;4.53;;;21.50;96.70;;;;;;4995080;28;20042;-77
2023/10/15 00:35:50;;;;;;;11.38;5.20;;;21.50;96.70;;;;;;4990639;28;20494;-77
2023/10/15 00:38:19;;;;;;;12.35;4.70;;;21.50;96.70;;;;;;4996297;28;20120;-77
2023/10/15 00:41:00;;;;;;;13.32;5.05;;;21.50;96.70;;;;;;4978691;28;20050;-77
2023/10/15 00:43:30;;;;;;;12.75;4.32;;;21.50;96.70;;;;;;4971546;28;20456;-77
2023/10/15 00:46:00;;;;;;;13.45;4.13;;;21.50;96.70;;;;;;4991649;28;20044;-78
2023/10/15 00:48:33;;;;;;;11.90;5.10;;;21.50;96.70;;;;;;4969595;28;20038;-77
2023/10/15 00:51:12;;;;;;;10.00;4.80;;;21.50;96.70;;;;;;4983745;28;20054;-77
2023/10/15 00:53:49;;;;;;;12.57;4.40;;;21.40;96.70;;;;;;4972424;28;20050;-77
2023/10/15 00:56:20;;;;;;;22.63;6.13;;;21.50;96.70;;;;;;4968896;28;20085;-77
2023/10/15 01:01:21;;;;;;;10.10;5.00;;;21.50;96.70;;;;;;4972468;28;20049;-77
2023/10/15 01:03:53;;;;;;;10.80;4.90;;;21.50;96.70;;;;;;4963726;28;20049;-77
2023/10/15 01:06:30;;;;;;;13.48;5.25;;;21.50;96.70;;;;;;4984914;28;21055;-77
2023/10/15 01:09:10;;;;;;;17.00;5.28;;;21.50;96.70;;;;;;4977508;28;20057;-77
2023/10/15 01:12:18;;;;;;;13.32;5.25;;;21.50;96.70;;;;;;4973373;28;20056;-77
2023/10/15 01:14:32;;;;;;;16.02;5.25;;;21.40;96.70;;;;;;4974400;28;20066;-77
2023/10/15 01:17:01;;;;;;;10.82;5.00;;;21.30;96.70;;;;;;4991172;28;20042;-77
2023/10/15 01:19:33;;;;;;;11.05;4.95;;;21.40;96.70;;;;;;4952069;28;20042;-77
2023/10/15 01:22:02;;;;;;;28.40;5.88;;;21.30;96.70;;;;;;4974721;28;20512;-77
2023/10/15 01:24:33;;;;;;;11.88;5.57;;;21.30;96.70;;;;;;4986473;28;20041;-77
2023/10/15 01:27:09;;;;;;;9.77;4.45;;;21.30;96.70;;;;;;4973371;28;20051;-77
2023/10/15 01:29:40;;;;;;;11.38;5.32;;;21.30;96.70;;;;;;4955136;28;20633;-77
2023/10/15 01:32:10;;;;;;;12.45;4.80;;;21.30;96.70;;;;;;4969476;28;20047;-77
2023/10/15 01:34:41;;;;;;;12.00;4.80;;;21.30;96.70;;;;;;4986000;28;20093;-77
2023/10/15 01:39:52;;;;;;;10.68;4.80;;;21.30;96.70;;;;;;4975629;28;20047;-77
2023/10/15 01:45:30;;;;;;;8.73;5.45;;;21.20;96.70;;;;;;4994576;28;20046;-77
2023/10/15 01:50:32;;;;;;;18.85;4.97;;;21.20;96.70;;;;;;5001101;28;20057;-77
2023/10/15 01:53:05;;;;;;;9.90;4.90;;;21.20;96.70;;;;;;4976953;28;20060;-77
2023/10/15 01:55:35;;;;;;;14.17;4.90;;;21.20;96.70;;;;;;4957641;28;20059;-77
2023/10/15 01:58:12;;;;;;;14.88;4.50;;;21.20;96.70;;;;;;4977304;28;20038;-78
2023/10/15 02:03:11;;;;;;;13.18;4.75;;;21.20;96.70;;;;;;4970015;28;20050;-77
2023/10/15 02:05:44;;;;;;;12.98;4.70;;;21.20;96.70;;;;;;4970398;28;20076;-77
2023/10/15 02:08:16;;;;;;;11.98;5.13;;;21.20;96.70;;;;;;4958393;28;20420;-77
2023/10/15 02:10:47;;;;;;;13.38;5.05;;;21.20;96.70;;;;;;4953213;28;20053;-79
2023/10/15 02:13:17;;;;;;;16.33;5.65;;;21.20;96.70;;;;;;4966008;28;20114;-78
2023/10/15 02:15:46;;;;;;;14.57;6.18;;;21.20;96.70;;;;;;4959755;28;20057;-77
2023/10/15 02:18:14;;;;;;;9.57;4.60;;;21.20;96.70;;;;;;4956831;28;20047;-78
2023/10/15 02:23:20;;;;;;;15.23;4.80;;;21.20;96.70;;;;;;4973460;28;20113;-77
2023/10/15 02:25:58;;;;;;;11.82;5.35;;;21.20;96.70;;;;;;4979397;28;20050;-78
2023/10/15 02:28:35;;;;;;;9.13;4.47;;;21.30;96.70;;;;;;4956777;28;20473;-77
2023/10/15 02:31:14;;;;;;;14.93;5.43;;;21.30;96.70;;;;;;4970482;28;20153;-78
2023/10/15 02:33:42;;;;;;;20.08;5.05;;;21.30;96.70;;;;;;4961857;28;20057;-78
2023/10/15 02:36:15;;;;;;;14.02;5.07;;;21.30;96.70;;;;;;4973938;28;20034;-75
2023/10/15 02:38:53;;;;;;;12.38;5.63;;;21.20;96.70;;;;;;4965537;28;20061;-74
2023/10/15 02:41:25;;;;;;;14.70;5.20;;;21.30;96.70;;;;;;4967413;28;20051;-75
2023/10/15 02:43:55;;;;;;;16.38;5.70;;;21.30;96.70;;;;;;4979005;28;20065;-76
2023/10/15 02:46:36;;;;;;;15.75;5.32;;;21.30;96.70;;;;;;4969238;28;20052;-75
2023/10/15 02:49:15;;;;;;;11.82;5.80;;;21.30;96.70;;;;;;4967691;28;20077;-74
2023/10/15 02:51:45;;;;;;;14.45;5.00;;;21.30;96.70;;;;;;4970446;28;20978;-76
2023/10/15 02:54:27;;;;;;;8.55;4.60;;;21.30;96.70;;;;;;4966382;28;20137;-75
2023/10/15 02:56:56;;;;;;;14.15;4.78;;;21.30;96.70;;;;;;4957898;28;20038;-75
2023/10/15 02:59:30;;;;;;;17.80;5.50;;;21.30;96.70;;;;;;4983543;28;20042;-76
2023/10/15 03:02:06;;;;;;;10.00;5.18;;;21.30;96.70;;;;;;4977928;28;20590;-75
2023/10/15 03:04:38;;;;;;;10.77;4.97;;;21.30;96.70;;;;;;4974161;28;20043;-76
2023/10/15 03:07:51;;;;;;;14.73;5.40;;;21.30;96.70;;;;;;4972754;28;20067;-75
2023/10/15 03:09:57;;;;;;;10.48;4.63;;;21.30;96.70;;;;;;4965954;28;20062;-75
2023/10/15 03:12:33;;;;;;;19.98;5.90;;;21.30;96.70;;;;;;4970870;28;20047;-75
2023/10/15 03:15:04;;;;;;;12.17;4.90;;;21.30;96.70;;;;;;4964000;28;20053;-75
2023/10/15 03:17:40;;;;;;;15.43;5.10;;;21.30;96.70;;;;;;4971848;28;20304;-75
2023/10/15 03:22:47;;;;;;;11.90;4.53;;;21.20;96.70;;;;;;4975211;28;20178;-75
2023/10/15 03:25:16;;;;;;;13.00;4.85;;;21.20;96.70;;;;;;4955188;28;20552;-75
2023/10/15 03:27:48;;;;;;;9.88;4.65;;;21.20;96.70;;;;;;4982998;28;20042;-75
2023/10/15 03:30:23;;;;;;;14.25;5.18;;;21.20;96.70;;;;;;4961701;28;20077;-75
2023/10/15 03:32:52;;;;;;;16.15;4.80;;;21.30;96.70;;;;;;4972963;28;20045;-75
2023/10/15 03:38:06;;;;;;;13.38;5.45;;;21.30;96.70;;;;;;4972518;28;20050;-76
2023/10/15 03:41:40;;;;;;;11.25;4.72;;;21.30;96.70;;;;;;4959794;28;20043;-75
2023/10/15 03:43:34;;;;;;;22.25;6.65;;;21.30;96.70;;;;;;4956441;28;20703;-75
2023/10/15 03:46:17;;;;;;;12.43;4.65;;;21.30;96.70;;;;;;4964970;28;20070;-76
2023/10/15 03:48:47;;;;;;;12.82;4.72;;;21.30;96.70;;;;;;4984838;28;20058;-78
2023/10/15 03:51:20;;;;;;;14.68;5.45;;;21.30;96.70;;;;;;4977454;28;20043;-78
2023/10/15 04:05:14;;;;;;;11.47;4.60;;;21.30;96.70;;;;;;5072944;27;20418;-76
2023/10/15 04:07:49;;;;;;;11.73;4.80;;;21.40;96.70;;;;;;5079535;28;20066;-75
2023/10/15 04:10:23;;;;;;;15.30;5.47;;;21.40;96.70;;;;;;5078698;28;20309;-75
2023/10/15 04:12:52;;;;;;;22.73;6.00;;;21.40;96.70;;;;;;5062308;28;20569;-75
2023/10/15 04:15:22;;;;;;;15.13;4.90;;;21.40;96.70;;;;;;5079018;28;20079;-75
2023/10/15 04:17:51;;;;;;;9.05;3.97;;;21.40;96.70;;;;;;5077790;28;20048;-76
2023/10/15 04:20:26;;;;;;;11.70;4.28;;;21.40;96.70;;;;;;5062398;28;20044;-76
2023/10/15 04:22:55;;;;;;;10.73;4.60;;;21.40;96.70;;;;;;5061115;28;20101;-76
2023/10/15 04:25:24;;;;;;;9.93;4.82;;;21.50;96.70;;;;;;5076174;28;20550;-76
2023/10/15 04:27:54;;;;;;;16.48;5.00;;;21.50;96.70;;;;;;5077851;28;20064;-76
2023/10/15 04:30:25;;;;;;;13.52;4.70;;;21.50;96.70;;;;;;5065218;28;20102;-76
2023/10/15 04:32:56;;;;;;;26.70;4.80;;;21.50;96.70;;;;;;5076379;28;20052;-75
2023/10/15 04:35:29;;;;;;;10.48;4.47;;;21.50;96.70;;;;;;5061183;28;20074;-76
2023/10/15 04:37:59;;;;;;;12.75;4.60;;;21.50;96.70;;;;;;5079000;28;20048;-75
2023/10/15 04:40:27;;;;;;;14.98;4.40;;;21.50;96.70;;;;;;5080019;28;20580;-76
2023/10/15 04:42:59;;;;;;;17.73;5.10;;;21.50;96.70;;;;;;5078010;28;20450;-76
2023/10/15 04:48:02;;;;;;;14.30;4.57;;;21.50;96.70;;;;;;5077676;28;20124;-76
2023/10/15 04:50:36;;;;;;;19.50;4.78;;;21.50;96.70;;;;;;5069408;28;20055;-75
2023/10/15 04:53:13;;;;;;;15.88;4.45;;;21.50;96.70;;;;;;5071141;28;20652;-76
2023/10/15 04:55:42;;;;;;;14.75;4.28;;;21.40;96.70;;;;;;5078247;28;20117;-76
2023/10/15 04:58:10;;;;;;;8.93;4.38;;;21.40;96.70;;;;;;5076541;28;20051;-76
2023/10/15 05:00:40;;;;;;;14.18;4.53;;;21.40;96.70;;;;;;5071307;28;20926;-76
2023/10/15 05:03:09;;;;;;;22.13;4.55;;;21.40;96.70;;;;;;5077347;28;20062;-75
2023/10/15 05:05:38;;;;;;;9.45;4.32;;;21.40;96.70;;;;;;5067596;28;20040;-76
2023/10/15 05:08:10;;;;;;;10.05;4.40;;;21.40;96.70;;;;;;5030757;28;20102;-76
2023/10/15 05:10:44;;;;;;;17.27;4.53;;;21.40;96.70;;;;;;5063831;28;20387;-75
2023/10/15 05:13:14;;;;;;;20.25;4.65;;;21.40;96.70;;;;;;5064038;28;20056;-76
2023/10/15 05:15:43;;;;;;;10.85;4.20;;;21.40;96.70;;;;;;5059112;28;20041;-76
2023/10/15 05:18:11;;;;;;;17.85;5.05;;;21.40;96.70;;;;;;5029912;28;20045;-75
2023/10/15 05:20:47;;;;;;;18.45;5.70;;;21.40;96.70;;;;;;5064050;28;20177;-76
2023/10/15 05:23:15;;;;;;;10.32;4.10;;;21.40;96.70;;;;;;5062567;28;20044;-76
2023/10/15 05:25:43;;;;;;;9.07;4.60;;;21.40;96.70;;;;;;5059773;28;20045;-75
2023/10/15 05:28:14;;;;;;;14.10;4.57;;;21.30;96.70;;;;;;5063886;28;20708;-76
2023/10/15 05:30:43;;;;;;;16.65;4.50;;;21.30;96.70;;;;;;5057340;28;20051;-76
2023/10/15 05:33:11;;;;;;;13.43;4.75;;;21.30;96.70;;;;;;5064275;28;20406;-76
2023/10/15 05:35:47;;;;;;;14.30;4.35;;;21.30;96.70;;;;;;5055644;28;20049;-76
2023/10/15 05:38:16;;;;;;;9.02;4.55;;;21.30;96.70;;;;;;5061282;28;20474;-76
2023/10/15 05:40:45;;;;;;;13.25;4.88;;;21.20;96.70;;;;;;5063798;28;20080;-76
2023/10/15 05:43:13;;;;;;;10.63;4.70;;;21.20;96.70;;;;;;5063806;28;20111;-76
2023/10/15 05:45:45;;;;;;;12.85;4.93;;;21.20;96.70;;;;;;5063017;28;20071;-75
2023/10/15 05:48:13;;;;;;;15.30;4.45;;;21.20;96.70;;;;;;5056169;28;20048;-76
2023/10/15 05:50:41;;;;;;;14.80;5.47;;;21.20;96.70;;;;;;5060048;28;20072;-76
2023/10/15 05:53:10;;;;;;;22.20;6.57;;;21.20;96.70;;;;;;5059613;28;20507;-76
2023/10/15 05:55:39;;;;;;;12.27;4.95;;;21.20;96.70;;;;;;5062284;28;20094;-76
2023/10/15 05:58:08;;;;;;;11.02;4.80;;;21.20;96.70;;;;;;5062457;28;20118;-76
2023/10/15 06:00:45;;;;;;;16.85;4.95;;;21.20;96.70;;;;;;5054876;28;20401;-76
2023/10/15 06:03:14;;;;;;;11.32;4.72;;;21.20;96.70;;;;;;5055044;28;20072;-76
2023/10/15 06:05:42;;;;;;;11.90;4.40;;;21.20;96.70;;;;;;5063604;28;20163;-76
2023/10/15 06:08:12;;;;;;;12.95;5.40;;;21.20;96.70;;;;;;5057317;28;20045;-76
2023/10/15 06:10:39;;;;;;;19.80;4.45;;;21.20;96.70;;;;;;5062340;28;20063;-75
2023/10/15 06:13:09;;;;;;;18.73;4.72;;;21.30;96.70;;;;;;5062974;28;20495;-76
2023/10/15 06:15:38;;;;;;;19.10;4.97;;;21.30;96.70;;;;;;5064319;28;20111;-76
2023/10/15 06:18:06;;;;;;;11.48;4.38;;;21.30;96.70;;;;;;5063547;28;20059;-76
2023/10/15 06:20:34;;;;;;;12.15;4.95;;;21.30;96.70;;;;;;5030530;28;20037;-76
2023/10/15 06:23:07;;;;;;;12.57;4.60;;;21.30;96.70;;;;;;5052690;28;20765;-77
2023/10/15 06:25:40;;;;;;;10.95;6.25;;;21.30;96.70;;;;;;5062297;28;20055;-76
2023/10/15 06:28:13;;;;;;;12.88;5.47;;;21.30;96.70;;;;;;5063479;28;20543;-76
2023/10/15 06:30:43;;;;;;;19.05;5.63;;;21.30;96.70;;;;;;5051560;28;20414;-76
2023/10/15 06:33:11;;;;;;;12.20;4.75;;;21.30;96.70;;;;;;5061758;28;20036;-76
2023/10/15 06:35:40;;;;;;;11.32;5.10;;;21.40;96.70;;;;;;5062827;28;20441;-76
2023/10/15 06:38:08;;;;;;;16.65;5.32;;;21.50;96.70;;;;;;5062926;28;20047;-76
2023/10/15 06:40:39;;;;;;;16.10;5.47;;;21.50;96.70;;;;;;5064246;28;20134;-76
2023/10/15 06:43:07;;;;;;;13.30;5.05;;;21.60;96.70;;;;;;5064118;28;20080;-76
2023/10/15 06:45:35;;;;;;;10.95;4.82;;;21.70;96.70;;;;;;5063215;28;20036;-77
2023/10/15 06:48:04;;;;;;;9.60;4.63;;;21.80;96.70;;;;;;5060114;28;20054;-77
2023/10/15 06:50:33;;;;;;;14.20;4.50;;;21.80;96.70;;;;;;5057396;28;20079;-77
2023/10/15 06:53:01;;;;;;;14.40;4.53;;;21.90;96.70;;;;;;5063305;28;20052;-76
2023/10/15 06:55:31;;;;;;;10.80;5.30;;;21.90;96.70;;;;;;5037667;28;20153;-76
2023/10/15 06:58:02;;;;;;;6.70;4.68;;;22.00;96.70;;;;;;5063831;28;20071;-77
2023/10/15 07:00:31;;;;;;;13.45;5.38;;;22.10;96.70;;;;;;5063738;28;20037;-77
2023/10/15 07:03:00;;;;;;;11.63;4.78;;;22.10;96.70;;;;;;5060220;28;20056;-76
2023/10/15 07:05:28;;;;;;;11.95;4.75;;;22.20;96.70;;;;;;5058489;28;20056;-76
2023/10/15 07:07:57;;;;;;;8.68;4.43;;;22.20;96.70;;;;;;5063662;28;20041;-76
2023/10/15 07:10:26;;;;;;;8.40;4.38;;;22.30;96.70;;;;;;5055331;28;20045;-76
2023/10/15 07:12:57;;;;;;;11.52;4.68;;;22.30;96.70;;;;;;5061918;28;20079;-75
2023/10/15 07:15:26;;;;;;;12.10;4.55;;;22.40;96.70;;;;;;5061976;28;20049;-77
2023/10/15 07:17:54;;;;;;;13.02;4.60;;;22.50;96.70;;;;;;5063202;28;20054;-75
2023/10/15 07:20:27;;;;;;;17.00;5.25;;;22.50;96.70;;;;;;5060512;28;20138;-74
2023/10/15 07:22:57;;;;;;;8.55;5.00;;;22.60;96.70;;;;;;5061603;28;20040;-76
2023/10/15 07:25:29;;;;;;;7.47;4.15;;;22.70;96.70;;;;;;5057603;28;20516;-76
2023/10/15 07:28:04;;;;;;;10.63;4.50;;;22.80;96.70;;;;;;5055390;28;20448;-77
2023/10/15 07:30:34;;;;;;;9.68;4.65;;;22.90;96.70;;;;;;5061036;28;20094;-74
2023/10/15 07:33:03;;;;;;;11.63;4.70;;;23.00;96.70;;;;;;5060566;28;20044;-73
2023/10/15 07:35:31;;;;;;;14.05;4.43;;;23.00;96.70;;;;;;5054369;28;20049;-74
2023/10/15 07:38:02;;;;;;;10.88;4.40;;;23.10;96.70;;;;;;5052504;28;20047;-77
2023/10/15 07:40:34;;;;;;;12.77;4.47;;;23.10;96.70;;;;;;5062385;28;20056;-73
2023/10/15 07:43:03;;;;;;;12.80;4.25;;;23.20;96.70;;;;;;5042711;28;20049;-74
2023/10/15 07:45:32;;;;;;;18.15;4.78;;;23.20;96.70;;;;;;5061072;28;20140;-75
2023/10/15 07:48:04;;;;;;;11.48;3.78;;;23.30;96.70;;;;;;5047809;28;20067;-74
2023/10/15 07:50:36;;;;;;;11.35;3.30;;;23.40;96.70;;;;;;5063126;28;20041;-73
2023/10/15 07:53:06;;;;;;;12.52;4.60;;;23.50;96.70;;;;;;5052947;28;20052;-73
2023/10/15 07:55:55;;;;;;;12.77;4.70;;;23.50;96.70;;;;;;5053289;28;20052;-75
2023/10/15 08:08:18;;;;;;;11.98;3.85;;;23.60;96.70;;;;;;5048737;28;20097;-76
2023/10/15 08:17:31;;;;;;;13.27;2.53;;;23.70;96.70;;;;;;5056479;28;20498;-75
2023/10/15 08:20:37;;;;;;;10.77;2.28;;;23.80;96.70;;;;;;5053663;28;20090;-75
2023/10/15 08:27:07;;;;;;;8.93;1.85;;;24.00;96.70;;;;;;5061348;28;20045;-75
2023/10/15 08:30:13;;;;;;;7.93;2.67;;;24.10;96.70;;;;;;5336558;23;20124;-81
2023/10/15 08:32:44;;;;;;;12.27;2.50;;;24.10;96.70;;;;;;5017971;28;20049;-80
2023/10/15 08:35:13;;;;;;;10.52;2.03;;;24.10;96.70;;;;;;5018480;28;20056;-78
2023/10/15 08:37:44;;;;;;;14.88;2.42;;;24.20;96.70;;;;;;4995642;28;20116;-79
2023/10/15 08:40:17;;;;;;;11.65;2.45;;;24.30;96.70;;;;;;4984008;28;20510;-80
2023/10/15 08:42:51;;;;;;;11.80;2.30;;;24.30;96.70;;;;;;4992613;28;20136;-78
2023/10/15 08:45:23;;;;;;;15.35;2.65;;;24.40;96.70;;;;;;5016297;28;20053;-77
2023/10/15 08:47:53;;;;;;;13.82;2.95;;;24.40;96.70;;;;;;4995377;28;20053;-77
2023/10/15 08:50:22;;;;;;;11.52;2.53;;;24.40;96.70;;;;;;5020531;28;20557;-76
2023/10/15 08:52:52;;;;;;;6.18;1.80;;;24.40;96.70;;;;;;5006231;28;20115;-77
2023/10/15 08:55:24;;;;;;;10.98;2.05;;;24.30;96.70;;;;;;5019554;28;20037;-76
2023/10/15 08:57:54;;;;;;;10.88;2.38;;;24.40;96.70;;;;;;4999839;28;20053;-78
2023/10/15 09:00:28;;;;;;;11.00;2.20;;;24.30;96.70;;;;;;4998833;28;21021;-76
2023/10/15 09:03:00;;;;;;;;;;;24.30;96.70;;;;;;5002553;28;20073;-77
2023/10/15 09:05:30;;;;;;;12.07;2.08;;;24.30;96.70;;;;;;5017570;28;19929;-78
2023/10/15 09:08:12;;;;;;;7.32;2.03;;;24.30;96.70;;;;;;5017881;28;20045;-78
2023/10/15 09:10:41;;;;;;;7.95;1.95;;;24.30;96.70;;;;;;4999053;28;20038;-79
2023/10/15 09:13:14;;;;;;;13.73;2.55;;;24.30;96.70;;;;;;5006578;28;20494;-76
2023/10/15 09:15:46;;;;;;;9.93;2.08;;;24.30;96.70;;;;;;5014459;28;20057;-79
2023/10/15 09:18:15;;;;;;;9.13;2.20;;;24.30;96.70;;;;;;4999705;28;20064;-78
2023/10/15 09:20:46;;;;;;;10.77;2.88;;;24.30;96.70;;;;;;4999976;28;20061;-80
2023/10/15 09:23:21;;;;;;;12.50;2.70;;;24.30;96.70;;;;;;5008628;28;20072;-78
2023/10/15 09:25:55;;;;;;;11.85;2.15;;;24.30;96.70;;;;;;4993742;28;20136;-82
2023/10/15 09:28:27;;;;;;;21.10;3.83;;;24.50;96.70;;;;;;5023077;28;20301;-79
2023/10/15 09:31:03;;;;;;;10.73;2.08;;;24.50;96.70;;;;;;5021961;28;20060;-76
2023/10/15 09:33:32;;;;;;;17.80;3.15;;;24.70;96.70;;;;;;5017714;28;20037;-76
2023/10/15 09:36:04;;;;;;;11.95;2.55;;;24.80;96.70;;;;;;5022556;28;20049;-78
2023/10/15 09:38:34;;;;;;;11.40;2.28;;;24.90;96.70;;;;;;4975946;28;20056;-76
2023/10/15 09:41:03;;;;;;;14.35;2.42;;;25.00;96.70;;;;;;4997574;28;20041;-72
2023/10/15 09:43:31;;;;;;;11.57;2.97;;;25.10;96.70;;;;;;5006776;28;20045;-73
2023/10/15 09:45:59;;;;;;;11.73;2.30;;;25.00;96.70;;;;;;5018437;28;20041;-73
2023/10/15 09:48:27;;;;;;;11.43;2.55;;;25.10;96.70;;;;;;5006997;28;20048;-73
2023/10/15 09:50:59;;;;;;;16.80;2.10;;;25.10;96.70;;;;;;5023361;28;20037;-74
2023/10/15 09:53:28;;;;;;;8.23;1.90;;;25.20;96.70;;;;;;5007333;28;20176;-73
2023/10/15 09:55:58;;;;;;;11.43;2.13;;;25.10;96.70;;;;;;5024784;28;20438;-71
2023/10/15 09:58:26;;;;;;;9.88;1.98;;;25.20;96.70;;;;;;5022513;28;20095;-73
2023/10/15 10:03:59;;;;;;;12.68;1.60;;;25.20;96.70;;;;;;5007572;28;20049;-72
2023/10/15 10:06:55;;;;;;;10.57;1.83;;;25.30;96.70;;;;;;5006386;28;20072;-72
2023/10/15 10:09:51;;;;;;;10.95;2.15;;;25.30;96.70;;;;;;5018767;28;20052;-73
2023/10/15 10:12:37;;;;;;;11.70;1.95;;;25.40;96.70;;;;;;4982016;28;20062;-71
2023/10/15 10:15:23;;;;;;;12.73;1.80;;;25.50;96.70;;;;;;5006053;28;20091;-72
2023/10/15 10:17:52;;;;;;;8.45;1.52;;;25.40;96.70;;;;;;5005818;28;20060;-73
2023/10/15 10:20:20;;;;;;;8.93;1.55;;;25.30;96.70;;;;;;4992549;28;20041;-73
2023/10/15 10:22:57;;;;;;;7.32;1.38;;;25.20;96.70;;;;;;5024798;28;20125;-74
2023/10/15 10:25:31;;;;;;;9.70;1.60;;;25.20;96.70;;;;;;5006610;28;20049;-72
2023/10/15 10:28:06;;;;;;;10.77;1.77;;;25.10;96.70;;;;;;5004902;28;20056;-73
2023/10/15 10:30:53;;;;;;;11.18;1.67;;;25.10;96.70;;;;;;5023640;28;20923;-72
2023/10/15 10:33:50;;;;;;;9.25;1.38;;;25.00;96.70;;;;;;5024309;28;20049;-74
2023/10/15 10:36:19;;;;;;;11.35;1.63;;;24.90;96.70;;;;;;4996218;28;20054;-72
2023/10/15 10:39:00;;;;;;;8.30;1.70;;;24.90;96.70;;;;;;5019869;28;20120;-72
2023/10/15 10:41:36;;;;;;;10.77;1.40;;;24.90;96.70;;;;;;4991243;28;20072;-72
2023/10/15 10:44:08;;;;;;;8.73;1.23;;;24.80;96.70;;;;;;5017300;28;20070;-72
2023/10/15 10:46:52;;;;;;;9.45;1.48;;;24.80;96.70;;;;;;4978000;28;20066;-72
2023/10/15 10:49:28;;;;;;;8.50;1.65;;;24.90;96.70;;;;;;5006412;28;20041;-73
2023/10/15 10:52:14;;;;;;;9.80;2.00;;;24.90;96.70;;;;;;5015653;28;20049;-72
2023/10/15 10:54:43;;;;;;;6.13;1.40;;;25.10;96.70;;;;;;5023122;28;20042;-72
2023/10/15 10:57:11;;;;;;;9.88;1.65;;;25.10;96.70;;;;;;5008657;28;20042;-73
2023/10/15 10:59:42;;;;;;;11.65;1.80;;;25.10;96.70;;;;;;5005514;28;20451;-73
2023/10/15 11:02:13;;;;;;;6.45;1.17;;;25.00;96.70;;;;;;5020636;28;20050;-71
2023/10/15 11:04:43;;;;;;;7.25;1.15;;;24.90;96.70;;;;;;5023346;28;20037;-72
2023/10/15 11:07:13;;;;;;;5.70;1.50;;;24.80;96.70;;;;;;5023446;28;20038;-72
2023/10/15 11:09:42;;;;;;;7.55;1.33;;;24.90;96.70;;;;;;5015189;28;20442;-73
2023/10/15 11:12:12;;;;;;;8.40;1.00;;;25.00;96.70;;;;;;5004310;28;20064;-72
2023/10/15 11:14:42;;;;;;;6.53;1.13;;;25.10;96.70;;;;;;4997498;28;20037;-72
2023/10/15 11:17:10;;;;;;;10.93;2.17;;;25.20;96.70;;;;;;5023017;28;20046;-72
2023/10/15 11:19:39;;;;;;;11.77;1.90;;;25.10;96.70;;;;;;5023431;28;20487;-72
2023/10/15 11:22:08;;;;;;;6.57;1.35;;;25.20;96.70;;;;;;5005715;28;20060;-73
2023/10/15 11:24:36;;;;;;;8.88;1.85;;;25.10;96.70;;;;;;4972022;28;20046;-72
2023/10/15 11:27:07;;;;;;;7.57;1.67;;;25.00;96.70;;;;;;5014630;28;20132;-72
2023/10/15 11:29:35;;;;;;;7.07;1.55;;;25.00;96.70;;;;;;5022920;28;20041;-72
2023/10/15 11:32:11;;;;;;;6.75;1.88;;;25.20;96.70;;;;;;4996380;28;20061;-73
2023/10/15 11:34:39;;;;;;;6.82;1.55;;;25.30;96.70;;;;;;5023533;28;20073;-73
2023/10/15 11:37:09;;;;;;;9.15;1.30;;;25.40;96.70;;;;;;5023117;28;20051;-73
2023/10/15 11:42:07;;;;;;;8.82;2.20;;;25.30;96.70;;;;;;5023097;28;20048;-73
2023/10/15 11:44:37;;;;;;;6.72;1.45;;;25.30;96.70;;;;;;5022957;28;20257;-73
2023/10/15 11:47:09;;;;;;;8.50;1.35;;;25.30;96.70;;;;;;5013682;28;20037;-73
2023/10/15 11:49:38;;;;;;;8.13;1.42;;;25.20;96.70;;;;;;5022356;28;20046;-73
2023/10/15 11:52:06;;;;;;;9.48;1.60;;;25.20;96.70;;;;;;5014583;28;20048;-73
2023/10/15 11:54:35;;;;;;;7.78;1.85;;;25.20;96.70;;;;;;5023509;28;20049;-73
2023/10/15 11:57:05;;;;;;;6.88;1.33;;;25.20;96.70;;;;;;5018003;28;20088;-73
2023/10/15 11:59:33;;;;;;;9.25;1.60;;;25.10;96.70;;;;;;5002346;28;20404;-72
2023/10/15 12:02:01;;;;;;;6.97;1.50;;;25.00;96.70;;;;;;5017736;28;20037;-73
2023/10/15 12:04:31;;;;;;;9.27;1.77;;;25.00;96.70;;;;;;5003159;28;20392;-73
2023/10/15 12:06:59;;;;;;;11.60;1.98;;;25.00;96.70;;;;;;5009467;28;20061;-72
2023/10/15 12:09:26;;;;;;;7.88;1.65;;;24.80;96.70;;;;;;5004719;28;20256;-72
2023/10/15 12:11:54;;;;;;;10.18;1.63;;;25.00;96.70;;;;;;5013913;28;20046;-73
2023/10/15 12:14:22;;;;;;;7.10;1.55;;;25.00;96.70;;;;;;4988407;28;20410;-72
2023/10/15 12:16:50;;;;;;;9.40;2.05;;;24.90;96.70;;;;;;5031799;28;20502;-73
2023/10/15 12:19:18;;;;;;;9.93;1.65;;;24.90;96.70;;;;;;5026711;28;20057;-73
2023/10/15 12:21:47;;;;;;;6.47;1.80;;;24.80;96.70;;;;;;5008859;28;20116;-73
2023/10/15 12:24:17;;;;;;;8.55;1.38;;;24.70;96.70;;;;;;5009230;28;20049;-73
2023/10/15 12:26:46;;;;;;;10.82;1.90;;;24.60;96.70;;;;;;5008162;28;20068;-73
2023/10/15 12:29:17;;;;;;;7.95;1.80;;;24.60;96.70;;;;;;5025299;28;20503;-73
2023/10/15 12:31:57;;;;;;;8.27;1.85;;;24.70;96.70;;;;;;5002521;28;20062;-73
2023/10/15 12:34:25;;;;;;;7.03;1.63;;;24.60;96.70;;;;;;5014147;28;20053;-73
2023/10/15 12:36:56;;;;;;;7.97;1.50;;;24.60;96.70;;;;;;5026334;28;20053;-72
2023/10/15 12:39:26;;;;;;;12.10;2.13;;;24.50;96.70;;;;;;5025699;28;20050;-73
2023/10/15 12:41:55;;;;;;;10.57;2.03;;;24.50;96.70;;;;;;5017582;28;20049;-73
2023/10/15 12:44:26;;;;;;;10.85;2.40;;;24.50;96.70;;;;;;5008684;28;20044;-72
2023/10/15 12:46:55;;;;;;;9.90;2.00;;;24.40;96.70;;;;;;5000257;28;20726;-73
2023/10/15 12:49:24;;;;;;;9.05;1.98;;;24.60;96.70;;;;;;5002561;28;20415;-72
2023/10/15 12:51:52;;;;;;;11.30;2.22;;;24.70;96.70;;;;;;4989715;28;20100;-72
2023/10/15 12:54:21;;;;;;;13.27;2.25;;;24.80;96.70;;;;;;4996818;28;20034;-72
2023/10/15 12:56:50;;;;;;;8.30;1.95;;;24.90;96.70;;;;;;5001612;28;20459;-72
2023/10/15 12:59:18;;;;;;;9.77;2.05;;;25.20;96.70;;;;;;5025831;28;20506;-72
2023/10/15 13:01:46;;;;;;;9.45;1.60;;;25.40;96.70;;;;;;5025386;28;20053;-72
2023/10/15 13:04:14;;;;;;;8.43;1.75;;;25.50;96.70;;;;;;4980517;28;20124;-73
2023/10/15 13:06:43;;;;;;;9.38;2.10;;;25.40;96.70;;;;;;5024231;28;20073;-72
2023/10/15 13:09:19;;;;;;;11.25;1.90;;;25.50;96.70;;;;;;4991619;28;20046;-72
2023/10/15 13:11:48;;;;;;;8.50;1.92;;;25.60;96.70;;;;;;5017080;28;20132;-72
2023/10/15 13:14:16;;;;;;;11.23;2.35;;;25.70;96.70;;;;;;5026633;28;20047;-73
2023/10/15 13:16:44;;;;;;;11.40;2.20;;;25.90;96.70;;;;;;5008051;28;20103;-73
2023/10/15 13:19:13;;;;;;;13.45;2.33;;;25.70;96.70;;;;;;4998596;28;20073;-74
2023/10/15 13:21:42;;;;;;;12.50;2.10;;;25.50;96.70;;;;;;4999960;28;20061;-73
2023/10/15 13:24:11;;;;;;;13.60;3.33;;;25.50;96.70;;;;;;5025925;28;20040;-73
2023/10/15 13:26:41;;;;;;;10.48;2.28;;;25.70;96.70;;;;;;4998317;28;20526;-73
2023/10/15 13:29:10;;;;;;;7.80;1.63;;;25.80;96.70;;;;;;5017575;28;20041;-73
2023/10/15 13:31:38;;;;;;;7.05;1.63;;;25.90;96.70;;;;;;4998660;28;20066;-72
2023/10/15 13:34:06;;;;;;;8.52;1.95;;;25.80;96.70;;;;;;5003886;28;21072;-73
2023/10/15 13:36:34;;;;;;;7.45;1.35;;;25.80;96.70;;;;;;5005145;28;20169;-72
2023/10/15 13:39:03;;;;;;;12.70;2.15;;;25.70;96.70;;;;;;5004084;28;20042;-73
2023/10/15 13:41:34;;;;;;;13.52;2.45;;;25.80;96.70;;;;;;5005429;28;20436;-73
2023/10/15 13:44:04;;;;;;;8.38;1.73;;;25.70;96.70;;;;;;4988993;28;20104;-72
2023/10/15 13:46:34;;;;;;;8.82;2.60;;;25.70;96.70;;;;;;4979153;28;20147;-72
2023/10/15 13:49:02;;;;;;;7.53;2.05;;;25.80;96.70;;;;;;5004250;28;20042;-73
2023/10/15 13:51:31;;;;;;;6.03;1.52;;;25.80;96.70;;;;;;4997223;28;20049;-73
2023/10/15 13:53:59;;;;;;;6.13;1.77;;;25.70;96.70;;;;;;4997152;28;20488;-73
2023/10/15 13:56:27;;;;;;;9.23;2.17;;;25.60;96.70;;;;;;5000859;28;20046;-72
2023/10/15 13:58:55;;;;;;;11.10;2.25;;;25.30;96.70;;;;;;5004587;28;20679;-73
2023/10/15 14:01:23;;;;;;;10.18;2.25;;;25.10;96.70;;;;;;5003705;28;20088;-73
2023/10/15 14:03:54;;;;;;;11.48;2.42;;;24.90;96.70;;;;;;5004253;28;20117;-73